Terminal Aerodrome Forecast
Issued by NWS Louisville, KY

Home | Current Version | Previous Version | Text Only | Print | Product List | Glossary On
Versions: 1 2 3 4 5 6 7 8 9 10 11 12 13 14 15 16 17
000
FTUS43 KLMK 180607 AAA
TAFBWG
TAF AMD
KBWG 180607Z 1806/1906 00000KT 6SM BR FEW250
      TEMPO 1806/1808 1SM BR
     FM180800 00000KT 4SM BR SKC
      TEMPO 1808/1812 1SM BR
     FM181200 16003KT P6SM SKC
     FM181500 19007KT P6SM SKC=

USA.gov is the U.S. government's official web portal to all federal, state and local government web resources and services.